Time,TemperatureF,DewpointF,PressureIn,WindDirection,WindDirectionDegrees,WindSpeedMPH,WindSpeedGustMPH,Humidity,HourlyPrecipIn,Conditions,Clouds,dailyrainin,SoftwareType,DateUTC
2013-02-11 00:14:00,10.2,9.7,30.25,SSW,202,0.0,-999.0,98,-99.99,,,0.00,Acu-Link.com,2013-02-11 05:14:00,
2013-02-11 00:29:00,9.7,9.3,30.25,SSW,202,0.0,-999.0,98,-99.99,,,0.00,Acu-Link.com,2013-02-11 05:29:00,
2013-02-11 00:44:00,10.2,9.7,30.24,SSW,202,0.0,-999.0,98,-99.99,,,0.00,Acu-Link.com,2013-02-11 05:44:00,
2013-02-11 01:00:00,10.8,10.3,30.22,SSW,202,0.0,-999.0,98,-99.99,,,0.00,Acu-Link.com,2013-02-11 06:00:00,
2013-02-11 01:15:00,11.3,10.8,30.23,SSW,202,0.0,-999.0,98,-99.99,,,0.00,Acu-Link.com,2013-02-11 06:15:00,
2013-02-11 01:30:00,11.5,11.0,30.23,SSW,202,0.0,-999.0,98,-99.99,,,0.00,Acu-Link.com,2013-02-11 06:30:00,
2013-02-11 01:45:00,11.5,11.0,30.21,SSW,202,0.0,-999.0,98,-99.99,,,0.00,Acu-Link.com,2013-02-11 06:45:00,
2013-02-11 02:00:00,14.2,13.7,30.21,West,270,0.0,-999.0,98,-99.99,,,0.00,Acu-Link.com,2013-02-11 07:00:00,
2013-02-11 02:15:00,13.1,12.6,30.20,West,270,0.0,-999.0,98,-99.99,,,0.00,Acu-Link.com,2013-02-11 07:15:00,
2013-02-11 02:30:00,13.3,12.8,30.19,West,270,0.0,-999.0,98,-99.99,,,0.00,Acu-Link.com,2013-02-11 07:30:00,
2013-02-11 02:45:00,13.8,13.3,30.19,West,270,0.0,-999.0,98,-99.99,,,0.00,Acu-Link.com,2013-02-11 07:45:00,
2013-02-11 03:00:00,14.5,14.0,30.19,West,270,0.0,-999.0,98,-99.99,,,0.00,Acu-Link.com,2013-02-11 08:00:00,
2013-02-11 03:16:00,14.9,14.4,30.19,West,270,0.0,-999.0,98,-99.99,,,0.00,Acu-Link.com,2013-02-11 08:16:00,
2013-02-11 03:31:00,15.8,15.3,30.17,West,270,0.0,-999.0,98,-99.99,,,0.00,Acu-Link.com,2013-02-11 08:31:00,
2013-02-11 03:46:00,18.1,17.6,30.17,SSE,157,0.0,-999.0,98,-99.99,,,0.00,Acu-Link.com,2013-02-11 08:46:00,
2013-02-11 04:01:00,18.5,18.0,30.15,SSE,157,0.0,-999.0,98,-99.99,,,0.00,Acu-Link.com,2013-02-11 09:01:00,
2013-02-11 04:16:00,18.5,18.0,30.15,SSE,157,0.0,-999.0,98,-99.99,,,0.00,Acu-Link.com,2013-02-11 09:16:00,
2013-02-11 04:32:00,18.7,18.2,30.13,SSE,157,0.0,-999.0,98,-99.99,,,0.00,Acu-Link.com,2013-02-11 09:32:00,
2013-02-11 04:47:00,18.7,18.2,30.12,SSE,157,0.0,-999.0,98,-99.99,,,0.00,Acu-Link.com,2013-02-11 09:47:00,
2013-02-11 05:02:00,18.9,18.4,30.12,SSE,157,0.0,-999.0,98,-99.99,,,0.00,Acu-Link.com,2013-02-11 10:02:00,
2013-02-11 05:17:00,18.9,18.4,30.11,SSE,157,0.0,-999.0,98,-99.99,,,0.00,Acu-Link.com,2013-02-11 10:17:00,
2013-02-11 05:32:00,19.0,18.5,30.12,SSE,157,0.0,-999.0,98,-99.99,,,0.00,Acu-Link.com,2013-02-11 10:32:00,
2013-02-11 05:48:00,19.4,18.9,30.12,SSE,157,0.0,-999.0,98,-99.99,,,0.00,Acu-Link.com,2013-02-11 10:48:00,
2013-02-11 06:03:00,20.1,19.6,30.12,SSE,157,0.0,-999.0,98,-99.99,,,0.00,Acu-Link.com,2013-02-11 11:03:00,
2013-02-11 06:18:00,20.5,20.0,30.09,SSE,157,0.0,-999.0,98,-99.99,,,0.00,Acu-Link.com,2013-02-11 11:18:00,
2013-02-11 06:33:00,21.4,20.9,30.08,SSE,157,0.0,-999.0,98,-99.99,,,0.00,Acu-Link.com,2013-02-11 11:33:00,
2013-02-11 06:48:00,21.9,21.4,30.07,SSE,157,0.0,-999.0,98,-99.99,,,0.00,Acu-Link.com,2013-02-11 11:48:00,
2013-02-11 07:03:00,22.5,22.0,30.08,SSE,157,0.0,-999.0,98,-99.99,,,0.00,Acu-Link.com,2013-02-11 12:03:00,
2013-02-11 07:18:00,23.0,22.5,30.08,SSE,157,0.0,-999.0,98,-99.99,,,0.00,Acu-Link.com,2013-02-11 12:18:00,
2013-02-11 07:34:00,24.3,23.8,30.07,SSE,157,0.0,-999.0,98,-99.99,,,0.00,Acu-Link.com,2013-02-11 12:34:00,
2013-02-11 07:49:00,25.5,25.0,30.05,SSE,157,0.0,-999.0,98,-99.99,,,0.00,Acu-Link.com,2013-02-11 12:49:00,
2013-02-11 08:04:00,26.6,26.1,30.05,ENE,67,0.0,-999.0,98,-99.99,,,0.00,Acu-Link.com,2013-02-11 13:04:00,
2013-02-11 08:19:00,27.1,26.6,30.04,East,90,0.0,-999.0,98,-99.99,,,0.00,Acu-Link.com,2013-02-11 13:19:00,
2013-02-11 08:34:00,28.4,27.9,30.03,ESE,112,0.0,-999.0,98,-99.99,,,0.00,Acu-Link.com,2013-02-11 13:34:00,
2013-02-11 08:49:00,29.8,29.3,30.01,East,90,0.0,-999.0,98,-99.99,,,0.00,Acu-Link.com,2013-02-11 13:49:00,
2013-02-11 09:04:00,31.6,31.1,29.98,East,90,0.0,-999.0,98,-99.99,,,0.01,Acu-Link.com,2013-02-11 14:04:00,
2013-02-11 09:20:00,32.5,32.0,29.99,ESE,112,0.0,-999.0,98,-99.99,,,0.01,Acu-Link.com,2013-02-11 14:20:00,
2013-02-11 09:35:00,34.2,33.7,29.98,SSE,157,5.8,-999.0,98,-99.99,,,0.01,Acu-Link.com,2013-02-11 14:35:00,
2013-02-11 09:50:00,35.4,34.9,29.96,SSE,157,7.8,-999.0,98,-99.99,,,0.01,Acu-Link.com,2013-02-11 14:50:00,
2013-02-11 10:05:00,35.6,35.1,29.93,SE,135,9.4,-999.0,98,-99.99,,,0.01,Acu-Link.com,2013-02-11 15:05:00,
2013-02-11 10:20:00,36.0,35.5,29.93,ESE,112,9.4,-999.0,98,-99.99,,,0.01,Acu-Link.com,2013-02-11 15:20:00,
2013-02-11 10:35:00,37.0,36.5,29.90,SE,135,7.8,-999.0,98,-99.99,,,0.01,Acu-Link.com,2013-02-11 15:35:00,
2013-02-11 10:50:00,37.2,36.7,29.89,ESE,112,7.3,-999.0,98,-99.99,,,0.02,Acu-Link.com,2013-02-11 15:50:00,
2013-02-11 11:05:00,37.6,37.1,29.89,SE,135,3.7,-999.0,98,-99.99,,,0.06,Acu-Link.com,2013-02-11 16:05:00,
2013-02-11 11:21:00,38.3,37.8,29.87,SE,135,5.8,-999.0,98,-99.99,,,0.08,Acu-Link.com,2013-02-11 16:21:00,
2013-02-11 11:36:00,39.0,38.5,29.85,SE,135,7.8,-999.0,98,-99.99,,,0.10,Acu-Link.com,2013-02-11 16:36:00,
2013-02-11 11:51:00,39.4,38.9,29.84,ESE,112,8.9,-999.0,98,-99.99,,,0.14,Acu-Link.com,2013-02-11 16:51:00,
2013-02-11 12:06:00,39.7,39.2,29.81,SSE,157,7.8,-999.0,98,-99.99,,,0.20,Acu-Link.com,2013-02-11 17:06:00,
2013-02-11 12:21:00,40.1,39.6,29.79,ESE,112,7.3,-999.0,98,-99.99,,,0.24,Acu-Link.com,2013-02-11 17:21:00,
2013-02-11 12:36:00,40.6,40.1,29.77,SSE,157,3.7,-999.0,98,-99.99,,,0.28,Acu-Link.com,2013-02-11 17:36:00,
2013-02-11 12:51:00,42.4,41.9,29.75,SSW,202,6.3,-999.0,98,-99.99,,,0.30,Acu-Link.com,2013-02-11 17:51:00,
2013-02-11 13:06:00,44.1,43.6,29.74,West,270,3.7,-999.0,98,-99.99,,,0.39,Acu-Link.com,2013-02-11 18:06:00,
2013-02-11 13:21:00,45.0,44.5,29.72,SSE,157,7.3,-999.0,98,-99.99,,,0.43,Acu-Link.com,2013-02-11 18:21:00,
2013-02-11 13:37:00,45.5,45.0,29.70,South,180,7.3,-999.0,98,-99.99,,,0.45,Acu-Link.com,2013-02-11 18:37:00,
2013-02-11 13:52:00,46.0,45.5,29.69,SSW,202,10.9,-999.0,98,-99.99,,,0.47,Acu-Link.com,2013-02-11 18:52:00,
2013-02-11 14:07:00,46.4,45.9,29.68,SSW,202,14.5,-999.0,98,-99.99,,,0.49,Acu-Link.com,2013-02-11 19:07:00,
2013-02-11 14:22:00,46.6,46.1,29.68,SW,225,6.8,-999.0,98,-99.99,,,0.53,Acu-Link.com,2013-02-11 19:22:00,
2013-02-11 14:37:00,46.6,46.1,29.66,South,180,4.2,-999.0,98,-99.99,,,0.58,Acu-Link.com,2013-02-11 19:37:00,
2013-02-11 14:53:00,47.1,46.6,29.65,SW,225,7.8,-999.0,98,-99.99,,,0.61,Acu-Link.com,2013-02-11 19:53:00,
2013-02-11 15:08:00,46.6,46.1,29.65,SSW,202,4.7,-999.0,98,-99.99,,,0.63,Acu-Link.com,2013-02-11 20:08:00,
2013-02-11 15:23:00,46.4,45.9,29.64,SW,225,4.2,-999.0,98,-99.99,,,0.64,Acu-Link.com,2013-02-11 20:23:00,
2013-02-11 15:38:00,46.4,45.9,29.64,WSW,247,2.7,-999.0,98,-99.99,,,0.65,Acu-Link.com,2013-02-11 20:38:00,
2013-02-11 15:53:00,45.9,45.4,29.62,SSW,202,2.7,-999.0,98,-99.99,,,0.65,Acu-Link.com,2013-02-11 20:53:00,
2013-02-11 16:08:00,45.5,45.0,29.61,South,180,2.7,-999.0,98,-99.99,,,0.65,Acu-Link.com,2013-02-11 21:08:00,
2013-02-11 16:23:00,45.1,44.6,29.60,South,180,1.7,-999.0,98,-99.99,,,0.66,Acu-Link.com,2013-02-11 21:23:00,
2013-02-11 16:39:00,45.1,44.6,29.59,South,180,3.7,-999.0,98,-99.99,,,0.68,Acu-Link.com,2013-02-11 21:39:00,
2013-02-11 16:54:00,45.3,44.8,29.59,South,180,2.2,-999.0,98,-99.99,,,0.68,Acu-Link.com,2013-02-11 21:54:00,
2013-02-11 17:09:00,45.3,44.8,29.58,SSW,202,3.7,-999.0,98,-99.99,,,0.68,Acu-Link.com,2013-02-11 22:09:00,
2013-02-11 17:24:00,45.1,44.6,29.56,SE,135,3.7,-999.0,98,-99.99,,,0.68,Acu-Link.com,2013-02-11 22:24:00,
2013-02-11 17:39:00,45.3,44.8,29.57,SW,225,3.7,-999.0,98,-99.99,,,0.68,Acu-Link.com,2013-02-11 22:39:00,
2013-02-11 17:54:00,45.0,44.5,29.55,SSW,202,2.7,-999.0,98,-99.99,,,0.68,Acu-Link.com,2013-02-11 22:54:00,
2013-02-11 18:09:00,44.8,44.3,29.55,SW,225,0.0,-999.0,98,-99.99,,,0.68,Acu-Link.com,2013-02-11 23:09:00,
2013-02-11 18:24:00,45.1,44.6,29.57,SSW,202,1.1,-999.0,98,-99.99,,,0.68,Acu-Link.com,2013-02-11 23:24:00,
2013-02-11 18:39:00,45.1,44.6,29.56,South,180,2.7,-999.0,98,-99.99,,,0.68,Acu-Link.com,2013-02-11 23:39:00,
2013-02-11 18:55:00,44.8,44.3,29.55,SW,225,3.2,-999.0,98,-99.99,,,0.68,Acu-Link.com,2013-02-11 23:55:00,
2013-02-11 19:10:00,45.1,44.6,29.53,SW,225,2.7,-999.0,98,-99.99,,,0.68,Acu-Link.com,2013-02-12 00:10:00,
2013-02-11 19:25:00,45.0,44.5,29.54,South,180,2.2,-999.0,98,-99.99,,,0.68,Acu-Link.com,2013-02-12 00:25:00,
2013-02-11 19:40:00,45.7,45.2,29.52,SW,225,3.2,-999.0,98,-99.99,,,0.68,Acu-Link.com,2013-02-12 00:40:00,
2013-02-11 19:55:00,45.3,44.8,29.52,SW,225,3.2,-999.0,98,-99.99,,,0.68,Acu-Link.com,2013-02-12 00:55:00,
2013-02-11 20:10:00,45.5,45.0,29.51,SW,225,2.2,-999.0,98,-99.99,,,0.68,Acu-Link.com,2013-02-12 01:10:00,
2013-02-11 20:25:00,45.3,44.8,29.51,SSW,202,2.7,-999.0,98,-99.99,,,0.68,Acu-Link.com,2013-02-12 01:25:00,
2013-02-11 20:40:00,45.3,44.8,29.51,South,180,2.2,-999.0,98,-99.99,,,0.68,Acu-Link.com,2013-02-12 01:40:00,
2013-02-11 20:55:00,45.0,44.5,29.50,SW,225,1.1,-999.0,98,-99.99,,,0.68,Acu-Link.com,2013-02-12 01:55:00,
2013-02-11 21:11:00,44.6,44.1,29.50,SSW,202,2.7,-999.0,98,-99.99,,,0.68,Acu-Link.com,2013-02-12 02:11:00,
2013-02-11 21:26:00,44.1,43.6,29.49,SSE,157,2.7,-999.0,98,-99.99,,,0.68,Acu-Link.com,2013-02-12 02:26:00,
2013-02-11 21:41:00,43.7,43.2,29.50,SSE,157,2.2,-999.0,98,-99.99,,,0.68,Acu-Link.com,2013-02-12 02:41:00,
2013-02-11 21:56:00,43.3,42.8,29.49,SSE,157,2.2,-999.0,98,-99.99,,,0.68,Acu-Link.com,2013-02-12 02:56:00,
2013-02-11 22:11:00,43.3,42.8,29.48,SSW,202,1.7,-999.0,98,-99.99,,,0.68,Acu-Link.com,2013-02-12 03:11:00,
2013-02-11 22:26:00,43.0,42.5,29.48,WSW,247,0.0,-999.0,98,-99.99,,,0.68,Acu-Link.com,2013-02-12 03:26:00,
2013-02-11 22:41:00,42.8,42.3,29.47,SSE,157,2.7,-999.0,98,-99.99,,,0.68,Acu-Link.com,2013-02-12 03:41:00,
2013-02-11 22:56:00,43.2,42.7,29.48,SW,225,3.7,-999.0,98,-99.99,,,0.68,Acu-Link.com,2013-02-12 03:56:00,
2013-02-11 23:11:00,43.0,42.5,29.48,SSE,157,0.0,-999.0,98,-99.99,,,0.68,Acu-Link.com,2013-02-12 04:11:00,
2013-02-11 23:27:00,43.0,42.5,29.48,SE,135,0.0,-999.0,98,-99.99,,,0.68,Acu-Link.com,2013-02-12 04:27:00,
2013-02-11 23:42:00,43.0,42.5,29.48,WSW,247,0.0,-999.0,98,-99.99,,,0.68,Acu-Link.com,2013-02-12 04:42:00,
2013-02-11 23:57:00,42.8,42.3,29.49,SW,225,3.7,-999.0,98,-99.99,,,0.68,Acu-Link.com,2013-02-12 04:57:00,